| Date | Time | Temp. (oF) | Dew Point (oF) | Rel. Hum. (%) | Press. (in.) | Wind Dir. | Wind Speed (mph) | Hourly Rainfall (in.) |
|
|---|---|---|---|---|---|---|---|---|---|
| 1 | 12/26 | 00:00 | 32 | 27 | 84 | 30.30 | NE | 4 | 0.00 |
| 2 | 12/25 | 23:00 | 30 | 27 | 89 | 30.29 | ENE | 7 | 0.00 |
| 3 | 12/25 | 22:00 | 32 | 28 | 86 | 30.28 | NE | 3 | 0.00 |
| 4 | 12/25 | 21:00 | 33 | 28 | 83 | 30.26 | NE | 5 | 0.00 |
| 5 | 12/25 | 20:00 | 34 | 28 | 79 | 30.25 | ENE | 5 | 0.00 |
| 6 | 12/25 | 19:00 | 37 | 31 | 81 | 30.23 | NE | 7 | 0.00 |
| 7 | 12/25 | 18:00 | 38 | 32 | 81 | 30.21 | ENE | 5 | 0.00 |
| 8 | 12/25 | 17:00 | 37 | 33 | 87 | 30.19 | N | 4 | 0.00 |
| 9 | 12/25 | 16:00 | 39 | 33 | 82 | 30.15 | N | 4 | 0.00 |
| 10 | 12/25 | 15:00 | 40 | 35 | 83 | 30.13 | N | 4 | 0.00 |
| 11 | 12/25 | 14:00 | 40 | 36 | 87 | 30.13 | NE | 6 | 0.00 |
| 12 | 12/25 | 13:00 | 40 | 37 | 90 | 30.14 | N | 7 | 0.00 |
| 13 | 12/25 | 12:00 | 40 | 39 | 98 | 30.13 | WSW | 5 | 0.00 |
| 14 | 12/25 | 11:00 | 37 | 36 | 100 | 30.14 | N | 3 | 0.00 |
| 15 | 12/25 | 10:00 | 35 | 35 | 100 | 30.15 | WSW | 1 | 0.00 |
| 16 | 12/25 | 09:00 | 34 | 33 | 100 | 30.12 | W | 1 | 0.00 |
| 17 | 12/25 | 08:00 | 32 | 32 | 100 | 30.09 | SW | 2 | 0.00 |
| 18 | 12/25 | 07:00 | 31 | 31 | 100 | 30.06 | SSW | 2 | 0.00 |
| 19 | 12/25 | 06:00 | 32 | 32 | 100 | 30.02 | ESE | 3 | 0.00 |
| 20 | 12/25 | 05:00 | 32 | 32 | 100 | 30.00 | WSW | 3 | 0.00 |
| 21 | 12/25 | 04:00 | 32 | 32 | 100 | 29.98 | WSW | 4 | 0.00 |
| 22 | 12/25 | 03:00 | 32 | 32 | 100 | 29.96 | N | 0 | 0.00 |
| 23 | 12/25 | 02:00 | 32 | 32 | 100 | 29.95 | W | 2 | 0.00 |
| 24 | 12/25 | 01:00 | 32 | 32 | 100 | 29.92 | W | 0 | 0.00 |